sensor_id;sensor_type;location;lat;lon;timestamp;P1;durP1;ratioP1;P2;durP2;ratioP2
17153;SDS011;8692;52.164;7.558;2024-02-28T00:01:03;20.53;;;10.80;;
17153;SDS011;8692;52.164;7.558;2024-02-28T00:03:31;19.63;;;10.83;;
17153;SDS011;8692;52.164;7.558;2024-02-28T00:05:59;15.93;;;9.70;;
17153;SDS011;8692;52.164;7.558;2024-02-28T00:08:29;17.13;;;9.47;;
17153;SDS011;8692;52.164;7.558;2024-02-28T00:10:57;13.03;;;8.63;;
17153;SDS011;8692;52.164;7.558;2024-02-28T00:13:25;17.47;;;9.37;;
17153;SDS011;8692;52.164;7.558;2024-02-28T00:15:52;14.60;;;8.63;;
17153;SDS011;8692;52.164;7.558;2024-02-28T00:18:21;16.13;;;8.93;;
17153;SDS011;8692;52.164;7.558;2024-02-28T00:20:50;12.07;;;8.30;;
17153;SDS011;8692;52.164;7.558;2024-02-28T00:23:18;14.03;;;7.77;;
17153;SDS011;8692;52.164;7.558;2024-02-28T00:25:47;12.50;;;7.17;;
17153;SDS011;8692;52.164;7.558;2024-02-28T00:28:15;12.70;;;8.03;;
17153;SDS011;8692;52.164;7.558;2024-02-28T00:30:43;12.27;;;8.23;;
17153;SDS011;8692;52.164;7.558;2024-02-28T00:33:11;12.77;;;7.37;;
17153;SDS011;8692;52.164;7.558;2024-02-28T00:35:39;14.13;;;7.97;;
17153;SDS011;8692;52.164;7.558;2024-02-28T00:38:08;10.10;;;6.87;;
17153;SDS011;8692;52.164;7.558;2024-02-28T00:40:36;8.50;;;6.63;;
17153;SDS011;8692;52.164;7.558;2024-02-28T00:43:06;11.83;;;7.67;;
17153;SDS011;8692;52.164;7.558;2024-02-28T00:45:33;11.20;;;7.27;;
17153;SDS011;8692;52.164;7.558;2024-02-28T00:48:02;10.63;;;6.93;;
17153;SDS011;8692;52.164;7.558;2024-02-28T00:50:30;12.23;;;7.47;;
17153;SDS011;8692;52.164;7.558;2024-02-28T00:52:58;11.70;;;7.33;;
17153;SDS011;8692;52.164;7.558;2024-02-28T00:55:26;13.77;;;8.20;;
17153;SDS011;8692;52.164;7.558;2024-02-28T00:57:54;10.67;;;6.73;;
17153;SDS011;8692;52.164;7.558;2024-02-28T01:00:23;11.17;;;6.67;;
17153;SDS011;8692;52.164;7.558;2024-02-28T01:02:51;10.30;;;6.83;;
17153;SDS011;8692;52.164;7.558;2024-02-28T01:05:19;10.07;;;6.93;;
17153;SDS011;8692;52.164;7.558;2024-02-28T01:07:47;11.10;;;7.60;;
17153;SDS011;8692;52.164;7.558;2024-02-28T01:10:15;13.37;;;7.43;;
17153;SDS011;8692;52.164;7.558;2024-02-28T01:12:43;12.60;;;7.70;;
17153;SDS011;8692;52.164;7.558;2024-02-28T01:15:11;11.03;;;7.73;;
17153;SDS011;8692;52.164;7.558;2024-02-28T01:17:41;11.87;;;7.47;;
17153;SDS011;8692;52.164;7.558;2024-02-28T01:20:09;11.57;;;7.63;;
17153;SDS011;8692;52.164;7.558;2024-02-28T01:22:38;11.90;;;7.47;;
17153;SDS011;8692;52.164;7.558;2024-02-28T01:25:05;10.70;;;6.40;;
17153;SDS011;8692;52.164;7.558;2024-02-28T01:27:33;22.53;;;7.03;;
17153;SDS011;8692;52.164;7.558;2024-02-28T01:30:02;35.33;;;6.63;;
17153;SDS011;8692;52.164;7.558;2024-02-28T01:32:31;8.80;;;6.63;;
17153;SDS011;8692;52.164;7.558;2024-02-28T01:35:01;9.77;;;6.83;;
17153;SDS011;8692;52.164;7.558;2024-02-28T01:37:30;8.63;;;6.30;;
17153;SDS011;8692;52.164;7.558;2024-02-28T01:39:58;10.97;;;6.70;;
17153;SDS011;8692;52.164;7.558;2024-02-28T01:42:26;10.47;;;6.83;;
17153;SDS011;8692;52.164;7.558;2024-02-28T01:44:54;8.57;;;6.47;;
17153;SDS011;8692;52.164;7.558;2024-02-28T01:47:22;10.87;;;7.43;;
17153;SDS011;8692;52.164;7.558;2024-02-28T01:49:50;10.53;;;6.63;;
17153;SDS011;8692;52.164;7.558;2024-02-28T01:52:21;9.20;;;6.33;;
17153;SDS011;8692;52.164;7.558;2024-02-28T01:54:52;9.63;;;6.77;;
17153;SDS011;8692;52.164;7.558;2024-02-28T01:57:20;12.53;;;7.77;;
17153;SDS011;8692;52.164;7.558;2024-02-28T01:59:48;8.63;;;6.00;;
17153;SDS011;8692;52.164;7.558;2024-02-28T02:02:16;9.40;;;5.93;;
17153;SDS011;8692;52.164;7.558;2024-02-28T02:04:44;9.20;;;6.50;;
17153;SDS011;8692;52.164;7.558;2024-02-28T02:07:12;10.03;;;7.10;;
17153;SDS011;8692;52.164;7.558;2024-02-28T02:09:42;8.30;;;5.67;;
17153;SDS011;8692;52.164;7.558;2024-02-28T02:12:10;10.07;;;6.43;;
17153;SDS011;8692;52.164;7.558;2024-02-28T02:14:38;9.43;;;6.07;;
17153;SDS011;8692;52.164;7.558;2024-02-28T02:17:05;9.17;;;6.00;;
17153;SDS011;8692;52.164;7.558;2024-02-28T02:19:33;8.10;;;6.13;;
17153;SDS011;8692;52.164;7.558;2024-02-28T02:22:02;7.97;;;5.87;;
17153;SDS011;8692;52.164;7.558;2024-02-28T02:24:33;8.43;;;5.57;;
17153;SDS011;8692;52.164;7.558;2024-02-28T02:27:02;10.67;;;7.07;;
17153;SDS011;8692;52.164;7.558;2024-02-28T02:29:31;9.87;;;6.90;;
17153;SDS011;8692;52.164;7.558;2024-02-28T02:31:59;10.60;;;7.23;;
17153;SDS011;8692;52.164;7.558;2024-02-28T02:34:26;11.67;;;7.00;;
17153;SDS011;8692;52.164;7.558;2024-02-28T02:36:54;10.13;;;5.67;;
17153;SDS011;8692;52.164;7.558;2024-02-28T02:39:22;11.07;;;7.30;;
17153;SDS011;8692;52.164;7.558;2024-02-28T02:41:52;10.67;;;7.03;;
17153;SDS011;8692;52.164;7.558;2024-02-28T02:44:20;8.70;;;6.67;;
17153;SDS011;8692;52.164;7.558;2024-02-28T02:46:48;11.30;;;6.23;;
17153;SDS011;8692;52.164;7.558;2024-02-28T02:49:16;11.97;;;6.80;;
17153;SDS011;8692;52.164;7.558;2024-02-28T02:51:45;12.80;;;7.97;;
17153;SDS011;8692;52.164;7.558;2024-02-28T02:54:13;41.83;;;8.07;;
17153;SDS011;8692;52.164;7.558;2024-02-28T02:56:41;16.90;;;7.40;;
17153;SDS011;8692;52.164;7.558;2024-02-28T02:59:11;13.47;;;7.63;;
17153;SDS011;8692;52.164;7.558;2024-02-28T03:01:39;12.30;;;7.80;;
17153;SDS011;8692;52.164;7.558;2024-02-28T03:04:07;11.00;;;7.37;;
17153;SDS011;8692;52.164;7.558;2024-02-28T03:06:35;11.97;;;7.30;;
17153;SDS011;8692;52.164;7.558;2024-02-28T03:09:03;9.77;;;6.03;;
17153;SDS011;8692;52.164;7.558;2024-02-28T03:11:33;11.23;;;7.00;;
17153;SDS011;8692;52.164;7.558;2024-02-28T03:14:01;11.37;;;6.97;;
17153;SDS011;8692;52.164;7.558;2024-02-28T03:16:30;10.60;;;6.70;;
17153;SDS011;8692;52.164;7.558;2024-02-28T03:18:58;9.40;;;7.63;;
17153;SDS011;8692;52.164;7.558;2024-02-28T03:21:26;13.33;;;7.60;;
17153;SDS011;8692;52.164;7.558;2024-02-28T03:23:54;13.67;;;8.27;;
17153;SDS011;8692;52.164;7.558;2024-02-28T03:26:22;19.07;;;8.37;;
17153;SDS011;8692;52.164;7.558;2024-02-28T03:28:50;10.80;;;7.17;;
17153;SDS011;8692;52.164;7.558;2024-02-28T03:31:19;13.63;;;8.03;;
17153;SDS011;8692;52.164;7.558;2024-02-28T03:33:48;14.10;;;8.07;;
17153;SDS011;8692;52.164;7.558;2024-02-28T03:36:16;15.50;;;8.97;;
17153;SDS011;8692;52.164;7.558;2024-02-28T03:38:44;13.40;;;8.47;;
17153;SDS011;8692;52.164;7.558;2024-02-28T03:41:12;13.97;;;8.53;;
17153;SDS011;8692;52.164;7.558;2024-02-28T03:43:40;12.23;;;7.40;;
17153;SDS011;8692;52.164;7.558;2024-02-28T03:46:08;12.13;;;7.67;;
17153;SDS011;8692;52.164;7.558;2024-02-28T03:48:36;13.90;;;8.47;;
17153;SDS011;8692;52.164;7.558;2024-02-28T03:51:06;12.43;;;7.13;;
17153;SDS011;8692;52.164;7.558;2024-02-28T03:53:34;12.33;;;8.13;;
17153;SDS011;8692;52.164;7.558;2024-02-28T03:56:02;27.33;;;9.00;;
17153;SDS011;8692;52.164;7.558;2024-02-28T03:58:30;11.67;;;7.53;;
17153;SDS011;8692;52.164;7.558;2024-02-28T04:00:58;11.63;;;6.73;;
17153;SDS011;8692;52.164;7.558;2024-02-28T04:03:26;11.43;;;7.53;;
17153;SDS011;8692;52.164;7.558;2024-02-28T04:05:54;14.80;;;8.87;;
17153;SDS011;8692;52.164;7.558;2024-02-28T04:08:24;11.70;;;8.57;;
17153;SDS011;8692;52.164;7.558;2024-02-28T04:10:52;11.27;;;8.03;;
17153;SDS011;8692;52.164;7.558;2024-02-28T04:13:20;10.40;;;7.57;;
17153;SDS011;8692;52.164;7.558;2024-02-28T04:15:48;12.30;;;7.80;;
17153;SDS011;8692;52.164;7.558;2024-02-28T04:18:16;12.40;;;7.90;;
17153;SDS011;8692;52.164;7.558;2024-02-28T04:20:44;13.77;;;8.83;;
17153;SDS011;8692;52.164;7.558;2024-02-28T04:23:12;11.77;;;8.03;;
17153;SDS011;8692;52.164;7.558;2024-02-28T04:25:41;11.53;;;7.87;;
17153;SDS011;8692;52.164;7.558;2024-02-28T04:28:09;15.17;;;8.67;;
17153;SDS011;8692;52.164;7.558;2024-02-28T04:30:37;11.00;;;6.97;;
17153;SDS011;8692;52.164;7.558;2024-02-28T04:33:05;15.00;;;9.27;;
17153;SDS011;8692;52.164;7.558;2024-02-28T04:35:33;13.73;;;9.10;;
17153;SDS011;8692;52.164;7.558;2024-02-28T04:38:01;41.87;;;9.60;;
17153;SDS011;8692;52.164;7.558;2024-02-28T04:40:29;15.20;;;9.30;;
17153;SDS011;8692;52.164;7.558;2024-02-28T04:42:59;32.47;;;9.93;;
17153;SDS011;8692;52.164;7.558;2024-02-28T04:45:28;13.80;;;8.97;;
17153;SDS011;8692;52.164;7.558;2024-02-28T04:47:56;18.10;;;9.47;;
17153;SDS011;8692;52.164;7.558;2024-02-28T04:50:24;15.63;;;9.63;;
17153;SDS011;8692;52.164;7.558;2024-02-28T04:52:52;14.40;;;9.53;;
17153;SDS011;8692;52.164;7.558;2024-02-28T04:55:22;20.97;;;9.87;;
17153;SDS011;8692;52.164;7.558;2024-02-28T04:57:50;16.23;;;9.20;;
17153;SDS011;8692;52.164;7.558;2024-02-28T05:00:20;18.47;;;10.43;;
17153;SDS011;8692;52.164;7.558;2024-02-28T05:02:48;22.70;;;11.07;;
17153;SDS011;8692;52.164;7.558;2024-02-28T05:05:16;19.07;;;10.13;;
17153;SDS011;8692;52.164;7.558;2024-02-28T05:07:44;15.53;;;10.10;;
17153;SDS011;8692;52.164;7.558;2024-02-28T05:10:12;16.33;;;10.00;;
17153;SDS011;8692;52.164;7.558;2024-02-28T05:12:40;23.80;;;10.83;;
17153;SDS011;8692;52.164;7.558;2024-02-28T05:15:09;18.87;;;10.40;;
17153;SDS011;8692;52.164;7.558;2024-02-28T05:17:38;15.77;;;9.57;;
17153;SDS011;8692;52.164;7.558;2024-02-28T05:20:07;16.13;;;10.40;;
17153;SDS011;8692;52.164;7.558;2024-02-28T05:22:36;17.07;;;9.60;;
17153;SDS011;8692;52.164;7.558;2024-02-28T05:25:04;29.03;;;12.03;;
17153;SDS011;8692;52.164;7.558;2024-02-28T05:27:32;19.53;;;11.70;;
17153;SDS011;8692;52.164;7.558;2024-02-28T05:30:01;21.13;;;11.40;;
17153;SDS011;8692;52.164;7.558;2024-02-28T05:32:31;26.80;;;11.50;;
17153;SDS011;8692;52.164;7.558;2024-02-28T05:35:01;17.23;;;10.40;;
17153;SDS011;8692;52.164;7.558;2024-02-28T05:37:29;25.33;;;10.73;;
17153;SDS011;8692;52.164;7.558;2024-02-28T05:39:57;27.97;;;12.60;;
17153;SDS011;8692;52.164;7.558;2024-02-28T05:42:26;22.43;;;11.90;;
17153;SDS011;8692;52.164;7.558;2024-02-28T05:44:55;21.60;;;11.90;;
17153;SDS011;8692;52.164;7.558;2024-02-28T05:47:23;20.93;;;12.17;;
17153;SDS011;8692;52.164;7.558;2024-02-28T05:49:51;18.10;;;10.83;;
17153;SDS011;8692;52.164;7.558;2024-02-28T05:52:23;19.97;;;12.73;;
17153;SDS011;8692;52.164;7.558;2024-02-28T05:54:52;21.77;;;11.87;;
17153;SDS011;8692;52.164;7.558;2024-02-28T05:57:20;22.50;;;13.20;;
17153;SDS011;8692;52.164;7.558;2024-02-28T05:59:49;20.70;;;12.17;;
17153;SDS011;8692;52.164;7.558;2024-02-28T06:02:18;27.73;;;15.00;;
17153;SDS011;8692;52.164;7.558;2024-02-28T06:04:46;23.23;;;12.67;;
17153;SDS011;8692;52.164;7.558;2024-02-28T06:07:14;29.47;;;12.87;;
17153;SDS011;8692;52.164;7.558;2024-02-28T06:09:43;39.37;;;13.80;;
17153;SDS011;8692;52.164;7.558;2024-02-28T06:12:11;33.13;;;13.40;;
17153;SDS011;8692;52.164;7.558;2024-02-28T06:14:39;28.00;;;13.90;;
17153;SDS011;8692;52.164;7.558;2024-02-28T06:17:07;37.27;;;14.57;;
17153;SDS011;8692;52.164;7.558;2024-02-28T06:19:35;26.57;;;14.07;;
17153;SDS011;8692;52.164;7.558;2024-02-28T06:22:03;28.07;;;15.43;;
17153;SDS011;8692;52.164;7.558;2024-02-28T06:24:33;52.58;;;25.90;;
17153;SDS011;8692;52.164;7.558;2024-02-28T06:27:03;31.07;;;17.77;;
17153;SDS011;8692;52.164;7.558;2024-02-28T06:29:34;27.70;;;14.77;;
17153;SDS011;8692;52.164;7.558;2024-02-28T06:32:02;37.78;;;19.85;;
17153;SDS011;8692;52.164;7.558;2024-02-28T06:34:31;23.70;;;14.63;;
17153;SDS011;8692;52.164;7.558;2024-02-28T06:36:59;25.93;;;15.40;;
17153;SDS011;8692;52.164;7.558;2024-02-28T06:39:27;28.57;;;16.17;;
17153;SDS011;8692;52.164;7.558;2024-02-28T06:41:55;26.03;;;15.97;;
17153;SDS011;8692;52.164;7.558;2024-02-28T06:44:24;27.57;;;15.83;;
17153;SDS011;8692;52.164;7.558;2024-02-28T06:46:52;44.53;;;15.20;;
17153;SDS011;8692;52.164;7.558;2024-02-28T06:49:20;27.00;;;14.70;;
17153;SDS011;8692;52.164;7.558;2024-02-28T06:51:48;31.17;;;15.60;;
17153;SDS011;8692;52.164;7.558;2024-02-28T06:54:16;32.87;;;15.87;;
17153;SDS011;8692;52.164;7.558;2024-02-28T06:56:44;35.30;;;15.93;;
17153;SDS011;8692;52.164;7.558;2024-02-28T06:59:12;28.70;;;15.97;;
17153;SDS011;8692;52.164;7.558;2024-02-28T07:01:42;35.40;;;15.77;;
17153;SDS011;8692;52.164;7.558;2024-02-28T07:04:10;32.57;;;15.57;;
17153;SDS011;8692;52.164;7.558;2024-02-28T07:06:38;25.80;;;15.37;;
17153;SDS011;8692;52.164;7.558;2024-02-28T07:09:07;41.70;;;15.57;;
17153;SDS011;8692;52.164;7.558;2024-02-28T07:11:35;33.73;;;16.57;;
17153;SDS011;8692;52.164;7.558;2024-02-28T07:14:03;33.50;;;15.37;;
17153;SDS011;8692;52.164;7.558;2024-02-28T07:16:31;32.37;;;17.37;;
17153;SDS011;8692;52.164;7.558;2024-02-28T07:19:01;30.53;;;16.77;;
17153;SDS011;8692;52.164;7.558;2024-02-28T07:21:29;32.77;;;16.57;;
17153;SDS011;8692;52.164;7.558;2024-02-28T07:23:58;28.93;;;15.47;;
17153;SDS011;8692;52.164;7.558;2024-02-28T07:26:26;32.37;;;18.00;;
17153;SDS011;8692;52.164;7.558;2024-02-28T07:28:54;30.30;;;16.93;;
17153;SDS011;8692;52.164;7.558;2024-02-28T07:31:22;32.17;;;17.30;;
17153;SDS011;8692;52.164;7.558;2024-02-28T07:33:50;49.87;;;18.53;;
17153;SDS011;8692;52.164;7.558;2024-02-28T07:36:20;46.40;;;17.63;;
17153;SDS011;8692;52.164;7.558;2024-02-28T07:38:49;44.20;;;18.23;;
17153;SDS011;8692;52.164;7.558;2024-02-28T07:41:18;32.00;;;17.20;;
17153;SDS011;8692;52.164;7.558;2024-02-28T07:43:46;34.13;;;17.80;;
17153;SDS011;8692;52.164;7.558;2024-02-28T07:46:14;37.77;;;17.87;;
17153;SDS011;8692;52.164;7.558;2024-02-28T07:48:42;42.83;;;18.97;;
17153;SDS011;8692;52.164;7.558;2024-02-28T07:51:10;33.93;;;18.40;;
17153;SDS011;8692;52.164;7.558;2024-02-28T07:53:40;38.40;;;19.40;;
17153;SDS011;8692;52.164;7.558;2024-02-28T07:56:15;30.40;;;17.23;;
17153;SDS011;8692;52.164;7.558;2024-02-28T07:58:43;37.33;;;18.03;;
17153;SDS011;8692;52.164;7.558;2024-02-28T08:01:12;34.77;;;18.17;;
17153;SDS011;8692;52.164;7.558;2024-02-28T08:03:40;35.60;;;18.80;;
17153;SDS011;8692;52.164;7.558;2024-02-28T08:06:08;40.40;;;19.33;;
17153;SDS011;8692;52.164;7.558;2024-02-28T08:08:39;42.43;;;17.93;;
17153;SDS011;8692;52.164;7.558;2024-02-28T08:11:07;38.90;;;18.73;;
17153;SDS011;8692;52.164;7.558;2024-02-28T08:13:35;44.80;;;20.47;;
17153;SDS011;8692;52.164;7.558;2024-02-28T08:16:03;42.53;;;19.20;;
17153;SDS011;8692;52.164;7.558;2024-02-28T08:18:34;36.47;;;18.73;;
17153;SDS011;8692;52.164;7.558;2024-02-28T08:21:02;39.67;;;19.93;;
17153;SDS011;8692;52.164;7.558;2024-02-28T08:23:31;38.53;;;20.13;;
17153;SDS011;8692;52.164;7.558;2024-02-28T08:26:00;37.03;;;19.30;;
17153;SDS011;8692;52.164;7.558;2024-02-28T08:28:29;44.27;;;20.70;;
17153;SDS011;8692;52.164;7.558;2024-02-28T08:30:58;37.90;;;18.83;;
17153;SDS011;8692;52.164;7.558;2024-02-28T08:33:26;43.27;;;21.40;;
17153;SDS011;8692;52.164;7.558;2024-02-28T08:35:54;37.97;;;20.37;;
17153;SDS011;8692;52.164;7.558;2024-02-28T08:38:23;45.70;;;21.87;;
17153;SDS011;8692;52.164;7.558;2024-02-28T08:40:51;51.50;;;23.27;;
17153;SDS011;8692;52.164;7.558;2024-02-28T08:43:20;46.73;;;21.53;;
17153;SDS011;8692;52.164;7.558;2024-02-28T08:45:48;46.60;;;21.87;;
17153;SDS011;8692;52.164;7.558;2024-02-28T08:48:18;42.53;;;23.60;;
17153;SDS011;8692;52.164;7.558;2024-02-28T08:50:46;51.17;;;23.97;;
17153;SDS011;8692;52.164;7.558;2024-02-28T08:53:14;42.33;;;22.53;;
17153;SDS011;8692;52.164;7.558;2024-02-28T08:55:42;56.33;;;24.07;;
17153;SDS011;8692;52.164;7.558;2024-02-28T08:58:10;48.23;;;22.77;;
17153;SDS011;8692;52.164;7.558;2024-02-28T09:00:39;47.87;;;23.97;;
17153;SDS011;8692;52.164;7.558;2024-02-28T09:03:07;51.83;;;25.77;;
17153;SDS011;8692;52.164;7.558;2024-02-28T09:05:35;48.97;;;23.23;;
17153;SDS011;8692;52.164;7.558;2024-02-28T09:08:03;49.90;;;24.93;;
17153;SDS011;8692;52.164;7.558;2024-02-28T09:10:32;50.60;;;25.33;;
17153;SDS011;8692;52.164;7.558;2024-02-28T09:13:00;53.17;;;26.40;;
17153;SDS011;8692;52.164;7.558;2024-02-28T09:15:29;57.10;;;27.57;;
17153;SDS011;8692;52.164;7.558;2024-02-28T09:17:58;49.37;;;23.63;;
17153;SDS011;8692;52.164;7.558;2024-02-28T09:20:27;51.73;;;25.63;;
17153;SDS011;8692;52.164;7.558;2024-02-28T09:22:55;56.50;;;26.00;;
17153;SDS011;8692;52.164;7.558;2024-02-28T09:25:23;57.60;;;27.00;;
17153;SDS011;8692;52.164;7.558;2024-02-28T09:27:54;47.30;;;24.13;;
17153;SDS011;8692;52.164;7.558;2024-02-28T09:30:23;58.80;;;26.83;;
17153;SDS011;8692;52.164;7.558;2024-02-28T09:32:59;49.87;;;25.40;;
17153;SDS011;8692;52.164;7.558;2024-02-28T09:35:28;55.70;;;27.77;;
17153;SDS011;8692;52.164;7.558;2024-02-28T09:37:56;56.33;;;26.33;;
17153;SDS011;8692;52.164;7.558;2024-02-28T09:40:24;59.60;;;27.07;;
17153;SDS011;8692;52.164;7.558;2024-02-28T09:42:56;60.53;;;27.97;;
17153;SDS011;8692;52.164;7.558;2024-02-28T09:45:28;58.67;;;27.60;;
17153;SDS011;8692;52.164;7.558;2024-02-28T09:48:00;55.23;;;26.87;;
17153;SDS011;8692;52.164;7.558;2024-02-28T09:50:30;57.17;;;26.27;;
17153;SDS011;8692;52.164;7.558;2024-02-28T09:52:57;61.67;;;27.87;;
17153;SDS011;8692;52.164;7.558;2024-02-28T09:55:36;64.70;;;27.70;;
17153;SDS011;8692;52.164;7.558;2024-02-28T09:58:04;54.13;;;25.73;;
17153;SDS011;8692;52.164;7.558;2024-02-28T10:00:33;58.67;;;27.87;;
17153;SDS011;8692;52.164;7.558;2024-02-28T10:03:03;54.53;;;26.63;;
17153;SDS011;8692;52.164;7.558;2024-02-28T10:05:33;55.07;;;27.07;;
17153;SDS011;8692;52.164;7.558;2024-02-28T10:08:02;53.50;;;26.90;;
17153;SDS011;8692;52.164;7.558;2024-02-28T10:10:31;46.27;;;25.13;;
17153;SDS011;8692;52.164;7.558;2024-02-28T10:12:59;52.03;;;25.23;;
17153;SDS011;8692;52.164;7.558;2024-02-28T10:15:27;54.30;;;26.20;;
17153;SDS011;8692;52.164;7.558;2024-02-28T10:17:55;47.63;;;26.40;;
17153;SDS011;8692;52.164;7.558;2024-02-28T10:20:25;52.83;;;25.93;;
17153;SDS011;8692;52.164;7.558;2024-02-28T10:22:53;49.03;;;26.17;;
17153;SDS011;8692;52.164;7.558;2024-02-28T10:25:20;51.80;;;25.53;;
17153;SDS011;8692;52.164;7.558;2024-02-28T10:27:50;44.47;;;24.80;;
17153;SDS011;8692;52.164;7.558;2024-02-28T10:30:18;52.37;;;25.30;;
17153;SDS011;8692;52.164;7.558;2024-02-28T10:32:49;46.60;;;24.83;;
17153;SDS011;8692;52.164;7.558;2024-02-28T10:35:17;52.90;;;26.37;;
17153;SDS011;8692;52.164;7.558;2024-02-28T10:37:48;49.50;;;25.63;;
17153;SDS011;8692;52.164;7.558;2024-02-28T10:40:18;47.30;;;25.27;;
17153;SDS011;8692;52.164;7.558;2024-02-28T10:42:47;50.57;;;25.87;;
17153;SDS011;8692;52.164;7.558;2024-02-28T10:45:17;44.50;;;25.93;;
17153;SDS011;8692;52.164;7.558;2024-02-28T10:48:06;48.87;;;26.03;;
17153;SDS011;8692;52.164;7.558;2024-02-28T10:50:35;50.67;;;25.97;;
17153;SDS011;8692;52.164;7.558;2024-02-28T10:53:05;45.20;;;24.93;;
17153;SDS011;8692;52.164;7.558;2024-02-28T10:55:40;42.57;;;23.97;;
17153;SDS011;8692;52.164;7.558;2024-02-28T10:58:10;41.83;;;24.87;;
17153;SDS011;8692;52.164;7.558;2024-02-28T11:00:39;43.43;;;23.53;;
17153;SDS011;8692;52.164;7.558;2024-02-28T11:03:11;48.43;;;25.57;;
17153;SDS011;8692;52.164;7.558;2024-02-28T11:05:43;42.87;;;23.20;;
17153;SDS011;8692;52.164;7.558;2024-02-28T11:08:20;46.37;;;25.00;;
17153;SDS011;8692;52.164;7.558;2024-02-28T11:10:54;44.83;;;25.03;;
17153;SDS011;8692;52.164;7.558;2024-02-28T11:13:23;47.07;;;26.03;;
17153;SDS011;8692;52.164;7.558;2024-02-28T11:15:52;49.53;;;26.67;;
17153;SDS011;8692;52.164;7.558;2024-02-28T11:18:21;45.27;;;25.90;;
17153;SDS011;8692;52.164;7.558;2024-02-28T11:20:49;46.67;;;26.47;;
17153;SDS011;8692;52.164;7.558;2024-02-28T11:23:17;49.30;;;25.97;;
17153;SDS011;8692;52.164;7.558;2024-02-28T11:25:47;49.03;;;26.77;;
17153;SDS011;8692;52.164;7.558;2024-02-28T11:28:15;49.53;;;26.73;;
17153;SDS011;8692;52.164;7.558;2024-02-28T11:30:43;49.23;;;27.07;;
17153;SDS011;8692;52.164;7.558;2024-02-28T11:33:11;52.40;;;27.57;;
17153;SDS011;8692;52.164;7.558;2024-02-28T11:35:40;53.70;;;29.37;;
17153;SDS011;8692;52.164;7.558;2024-02-28T11:38:09;49.10;;;27.87;;
17153;SDS011;8692;52.164;7.558;2024-02-28T11:40:38;51.93;;;29.53;;
17153;SDS011;8692;52.164;7.558;2024-02-28T11:43:16;54.63;;;29.63;;
17153;SDS011;8692;52.164;7.558;2024-02-28T11:45:45;50.10;;;27.73;;
17153;SDS011;8692;52.164;7.558;2024-02-28T11:48:14;51.63;;;28.87;;
17153;SDS011;8692;52.164;7.558;2024-02-28T11:50:42;52.80;;;30.83;;
17153;SDS011;8692;52.164;7.558;2024-02-28T11:53:12;52.07;;;29.07;;
17153;SDS011;8692;52.164;7.558;2024-02-28T11:55:40;56.63;;;29.90;;
17153;SDS011;8692;52.164;7.558;2024-02-28T11:58:09;52.60;;;30.80;;
17153;SDS011;8692;52.164;7.558;2024-02-28T12:00:46;52.27;;;29.90;;
17153;SDS011;8692;52.164;7.558;2024-02-28T12:03:19;59.00;;;31.90;;
17153;SDS011;8692;52.164;7.558;2024-02-28T12:05:48;53.80;;;31.37;;
17153;SDS011;8692;52.164;7.558;2024-02-28T12:08:17;53.43;;;30.30;;
17153;SDS011;8692;52.164;7.558;2024-02-28T12:10:46;47.53;;;28.80;;
17153;SDS011;8692;52.164;7.558;2024-02-28T12:13:17;49.10;;;29.20;;
17153;SDS011;8692;52.164;7.558;2024-02-28T12:15:46;46.43;;;28.33;;
17153;SDS011;8692;52.164;7.558;2024-02-28T12:18:15;52.67;;;29.13;;
17153;SDS011;8692;52.164;7.558;2024-02-28T12:20:43;53.78;;;34.53;;
17153;SDS011;8692;52.164;7.558;2024-02-28T12:23:12;56.90;;;30.27;;
17153;SDS011;8692;52.164;7.558;2024-02-28T12:25:40;44.50;;;26.70;;
17153;SDS011;8692;52.164;7.558;2024-02-28T12:28:08;42.03;;;26.93;;
17153;SDS011;8692;52.164;7.558;2024-02-28T12:30:39;45.37;;;27.03;;
17153;SDS011;8692;52.164;7.558;2024-02-28T12:33:10;42.07;;;26.67;;
17153;SDS011;8692;52.164;7.558;2024-02-28T12:35:38;40.27;;;24.47;;
17153;SDS011;8692;52.164;7.558;2024-02-28T12:38:08;51.17;;;26.53;;
17153;SDS011;8692;52.164;7.558;2024-02-28T12:40:36;47.03;;;26.20;;
17153;SDS011;8692;52.164;7.558;2024-02-28T12:43:04;44.70;;;27.30;;
17153;SDS011;8692;52.164;7.558;2024-02-28T12:45:32;45.20;;;26.73;;
17153;SDS011;8692;52.164;7.558;2024-02-28T12:48:00;48.00;;;27.90;;
17153;SDS011;8692;52.164;7.558;2024-02-28T12:50:30;47.43;;;28.00;;
17153;SDS011;8692;52.164;7.558;2024-02-28T12:53:00;48.47;;;28.50;;
17153;SDS011;8692;52.164;7.558;2024-02-28T12:55:28;45.30;;;27.33;;
17153;SDS011;8692;52.164;7.558;2024-02-28T12:57:56;48.97;;;29.20;;
17153;SDS011;8692;52.164;7.558;2024-02-28T13:00:26;42.77;;;26.57;;
17153;SDS011;8692;52.164;7.558;2024-02-28T13:02:55;43.00;;;28.23;;
17153;SDS011;8692;52.164;7.558;2024-02-28T13:05:23;47.07;;;28.23;;
17153;SDS011;8692;52.164;7.558;2024-02-28T13:07:57;43.70;;;28.50;;
17153;SDS011;8692;52.164;7.558;2024-02-28T13:10:25;43.47;;;28.03;;
17153;SDS011;8692;52.164;7.558;2024-02-28T13:12:53;40.30;;;26.77;;
17153;SDS011;8692;52.164;7.558;2024-02-28T13:15:22;43.13;;;26.83;;
17153;SDS011;8692;52.164;7.558;2024-02-28T13:17:50;46.40;;;27.70;;
17153;SDS011;8692;52.164;7.558;2024-02-28T13:20:18;41.73;;;26.83;;
17153;SDS011;8692;52.164;7.558;2024-02-28T13:22:46;41.07;;;25.83;;
17153;SDS011;8692;52.164;7.558;2024-02-28T13:25:16;43.70;;;26.10;;
17153;SDS011;8692;52.164;7.558;2024-02-28T13:27:46;46.47;;;28.90;;
17153;SDS011;8692;52.164;7.558;2024-02-28T13:30:14;43.73;;;27.70;;
17153;SDS011;8692;52.164;7.558;2024-02-28T13:32:42;41.67;;;27.47;;
17153;SDS011;8692;52.164;7.558;2024-02-28T13:35:13;41.03;;;25.40;;
17153;SDS011;8692;52.164;7.558;2024-02-28T13:37:41;42.73;;;27.07;;
17153;SDS011;8692;52.164;7.558;2024-02-28T13:40:09;41.00;;;25.17;;
17153;SDS011;8692;52.164;7.558;2024-02-28T13:42:39;41.23;;;25.13;;
17153;SDS011;8692;52.164;7.558;2024-02-28T13:45:08;38.97;;;25.77;;
17153;SDS011;8692;52.164;7.558;2024-02-28T13:47:37;38.83;;;25.13;;
17153;SDS011;8692;52.164;7.558;2024-02-28T13:50:06;40.57;;;25.60;;
17153;SDS011;8692;52.164;7.558;2024-02-28T13:52:36;34.27;;;24.17;;
17153;SDS011;8692;52.164;7.558;2024-02-28T13:55:04;39.27;;;23.90;;
17153;SDS011;8692;52.164;7.558;2024-02-28T13:57:34;36.23;;;24.67;;
17153;SDS011;8692;52.164;7.558;2024-02-28T14:00:04;43.13;;;25.47;;
17153;SDS011;8692;52.164;7.558;2024-02-28T14:02:37;37.77;;;25.53;;
17153;SDS011;8692;52.164;7.558;2024-02-28T14:05:05;40.57;;;25.27;;
17153;SDS011;8692;52.164;7.558;2024-02-28T14:07:34;38.50;;;24.67;;
17153;SDS011;8692;52.164;7.558;2024-02-28T14:10:04;37.53;;;25.00;;
17153;SDS011;8692;52.164;7.558;2024-02-28T14:12:33;41.33;;;25.53;;
17153;SDS011;8692;52.164;7.558;2024-02-28T14:15:01;39.47;;;24.10;;
17153;SDS011;8692;52.164;7.558;2024-02-28T14:17:32;41.23;;;24.67;;
17153;SDS011;8692;52.164;7.558;2024-02-28T14:20:00;35.63;;;24.87;;
17153;SDS011;8692;52.164;7.558;2024-02-28T14:22:28;41.60;;;25.80;;
17153;SDS011;8692;52.164;7.558;2024-02-28T14:24:56;36.90;;;24.83;;
17153;SDS011;8692;52.164;7.558;2024-02-28T14:27:24;41.60;;;25.43;;
17153;SDS011;8692;52.164;7.558;2024-02-28T14:29:56;37.53;;;25.03;;
17153;SDS011;8692;52.164;7.558;2024-02-28T14:32:24;45.67;;;24.87;;
17153;SDS011;8692;52.164;7.558;2024-02-28T14:34:54;37.87;;;24.47;;
17153;SDS011;8692;52.164;7.558;2024-02-28T14:37:22;40.67;;;23.60;;
17153;SDS011;8692;52.164;7.558;2024-02-28T14:39:50;37.53;;;23.83;;
17153;SDS011;8692;52.164;7.558;2024-02-28T14:42:18;35.13;;;23.87;;
17153;SDS011;8692;52.164;7.558;2024-02-28T14:44:48;39.13;;;24.40;;
17153;SDS011;8692;52.164;7.558;2024-02-28T14:47:19;37.60;;;23.80;;
17153;SDS011;8692;52.164;7.558;2024-02-28T14:49:47;36.27;;;24.37;;